Time;durP1;ratioP1;P1;durP2;ratioP2;P2;SDS_P1;SDS_P2;PMS_P1;PMS_P2;Temp;Humidity;BMP_temperature;BMP_pressure;BME280_temperature;BME280_humidity;BME280_pressure;Samples;Min_cycle;Max_cycle;Signal;HPM_P1;HPM_P2
2022/11/05 00:10:46;;;;;;;4.18;2.33;;;;;;;;;;4979840;28;20038;-86
2022/11/05 00:18:40;;;;;;;5.35;2.50;;;;;;;;;;4992616;28;20029;-86
2022/11/05 00:25:12;;;;;;;3.63;2.50;;;;;;;;;;5004664;28;20023;-86
2022/11/05 00:26:35;;;;;;;3.72;2.50;;;;;;;;;;4988229;28;20097;-85
2022/11/05 00:29:01;;;;;;;4.30;2.67;;;;;;;;;;4980524;28;20026;-85
2022/11/05 00:31:26;;;;;;;5.35;2.80;;;;;;;;;;4992850;28;20516;-86
2022/11/05 00:33:51;;;;;;;6.80;2.83;;;;;;;;;;4971765;28;20023;-85
2022/11/05 00:36:17;;;;;;;3.63;2.60;;;;;;;;;;4995220;28;20030;-84
2022/11/05 00:38:42;;;;;;;3.30;2.20;;;;;;;;;;4970187;28;20504;-86
2022/11/05 00:41:07;;;;;;;6.60;2.20;;;;;;;;;;5001753;28;20026;-85
2022/11/05 00:46:17;;;;;;;4.32;2.40;;;;;;;;;;4986090;28;20092;-85
2022/11/05 00:51:26;;;;;;;7.18;2.15;;;;;;;;;;4989258;28;20120;-87
2022/11/05 00:53:51;;;;;;;2.45;1.65;;;;;;;;;;4987170;28;20417;-85
2022/11/05 00:56:17;;;;;;;4.65;1.75;;;;;;;;;;4979713;28;20014;-86
2022/11/05 00:58:42;;;;;;;3.92;1.85;;;;;;;;;;4978363;28;20093;-86
2022/11/05 01:01:11;;;;;;;8.23;2.15;;;;;;;;;;4991770;28;20019;-85
2022/11/05 01:03:38;;;;;;;2.03;1.80;;;;;;;;;;5008915;28;20018;-86
2022/11/05 01:06:11;;;;;;;2.33;1.80;;;;;;;;;;4995126;28;20072;-87
2022/11/05 01:08:37;;;;;;;2.90;2.05;;;;;;;;;;4988948;28;20041;-86
2022/11/05 01:11:33;;;;;;;7.70;3.05;;;;;;;;;;4998235;28;20046;-87
2022/11/05 01:14:11;;;;;;;3.15;2.10;;;;;;;;;;4970523;28;20531;-87
2022/11/05 01:16:37;;;;;;;5.10;2.15;;;;;;;;;;4977922;28;20030;-86
2022/11/05 01:19:08;;;;;;;2.65;2.10;;;;;;;;;;5003483;28;20045;-84
2022/11/05 01:21:33;;;;;;;4.85;2.33;;;;;;;;;;4999954;28;20017;-84
2022/11/05 01:23:59;;;;;;;2.88;2.30;;;;;;;;;;4996892;28;20038;-85
2022/11/05 01:26:25;;;;;;;4.90;2.17;;;;;;;;;;4972284;28;20564;-86
2022/11/05 01:28:51;;;;;;;3.25;2.40;;;;;;;;;;4984303;28;20041;-87
2022/11/05 01:31:17;;;;;;;6.90;2.75;;;;;;;;;;4988749;28;20507;-87
2022/11/05 01:33:42;;;;;;;4.53;2.58;;;;;;;;;;4974797;28;20041;-86
2022/11/05 01:36:08;;;;;;;5.45;2.30;;;;;;;;;;4978087;28;20038;-87
2022/11/05 01:38:33;;;;;;;2.88;2.17;;;;;;;;;;4993693;28;20057;-85
2022/11/05 01:40:58;;;;;;;4.30;2.15;;;;;;;;;;4991063;28;20060;-86
2022/11/05 01:43:24;;;;;;;3.38;2.30;;;;;;;;;;4983756;28;20096;-86
2022/11/05 01:45:57;;;;;;;3.90;1.80;;;;;;;;;;4992474;28;20079;-85
2022/11/05 01:48:31;;;;;;;8.57;2.53;;;;;;;;;;4987263;28;20519;-85
2022/11/05 01:51:01;;;;;;;5.60;2.58;;;;;;;;;;4992389;28;20061;-86
2022/11/05 01:53:37;;;;;;;9.18;2.20;;;;;;;;;;4978457;28;20408;-85
2022/11/05 01:56:10;;;;;;;2.92;2.35;;;;;;;;;;4983394;28;20432;-85
2022/11/05 01:58:45;;;;;;;7.40;2.58;;;;;;;;;;5001915;28;20061;-85
2022/11/05 02:01:11;;;;;;;3.38;2.40;;;;;;;;;;4994980;28;20038;-86
2022/11/05 02:03:37;;;;;;;6.30;2.92;;;;;;;;;;4981911;28;20018;-86
2022/11/05 02:06:03;;;;;;;11.35;2.50;;;;;;;;;;4984150;28;20046;-87
2022/11/05 02:08:44;;;;;;;4.10;2.75;;;;;;;;;;4979629;28;20022;-87
2022/11/05 02:11:16;;;;;;;2.42;2.10;;;;;;;;;;4999684;28;20030;-87
2022/11/05 02:13:41;;;;;;;8.82;2.30;;;;;;;;;;4997442;28;20033;-86
2022/11/05 02:16:27;;;;;;;2.42;2.00;;;;;;;;;;4992990;28;20030;-84
2022/11/05 02:19:23;;;;;;;2.90;1.95;;;;;;;;;;4996594;28;20030;-85
2022/11/05 02:22:24;;;;;;;3.92;2.40;;;;;;;;;;4999784;28;20109;-85
2022/11/05 02:25:08;;;;;;;4.55;2.22;;;;;;;;;;4977352;28;20509;-84
2022/11/05 02:27:36;;;;;;;4.07;2.35;;;;;;;;;;4993912;28;20035;-86
2022/11/05 02:30:27;;;;;;;4.40;2.33;;;;;;;;;;4990033;28;20045;-84
2022/11/05 02:33:14;;;;;;;3.80;2.22;;;;;;;;;;4971883;28;20026;-86
2022/11/05 02:35:55;;;;;;;3.88;2.13;;;;;;;;;;4995731;28;20030;-86
2022/11/05 02:38:39;;;;;;;4.40;2.03;;;;;;;;;;4994869;28;20044;-86
2022/11/05 02:41:29;;;;;;;2.20;1.70;;;;;;;;;;4963173;28;20043;-85
2022/11/05 02:44:15;;;;;;;2.20;1.77;;;;;;;;;;4998075;28;20076;-85
2022/11/05 02:46:57;;;;;;;3.13;2.33;;;;;;;;;;4987441;28;20036;-85
2022/11/05 02:50:09;;;;;;;1.95;1.85;;;;;;;;;;4968695;28;20041;-87
2022/11/05 02:52:42;;;;;;;3.22;2.20;;;;;;;;;;4971638;28;20031;-86
2022/11/05 02:55:21;;;;;;;3.50;1.98;;;;;;;;;;4964609;28;20096;-85
2022/11/05 02:57:47;;;;;;;2.67;2.08;;;;;;;;;;4986309;28;20053;-85
2022/11/05 03:00:51;;;;;;;5.50;2.40;;;;;;;;;;4989416;28;20499;-85
2022/11/05 03:03:23;;;;;;;4.15;2.35;;;;;;;;;;4983096;28;20436;-86
2022/11/05 03:06:21;;;;;;;4.93;2.55;;;;;;;;;;4997199;28;20105;-85
2022/11/05 03:09:15;;;;;;;3.00;2.30;;;;;;;;;;4984618;28;20041;-86
2022/11/05 03:12:03;;;;;;;2.90;2.28;;;;;;;;;;4998864;28;20053;-85
2022/11/05 03:14:37;;;;;;;5.95;2.67;;;;;;;;;;4991412;28;20019;-85
2022/11/05 03:17:20;;;;;;;4.30;2.72;;;;;;;;;;4987502;28;20038;-85
2022/11/05 03:20:08;;;;;;;9.15;3.03;;;;;;;;;;5001119;28;20030;-85
2022/11/05 03:22:41;;;;;;;4.07;2.25;;;;;;;;;;4983798;28;20030;-86
2022/11/05 03:25:13;;;;;;;2.63;2.33;;;;;;;;;;4976561;28;20572;-85
2022/11/05 03:27:46;;;;;;;2.63;2.33;;;;;;;;;;4996096;28;20605;-86
2022/11/05 03:30:14;;;;;;;2.85;2.55;;;;;;;;;;4987851;28;20030;-86
2022/11/05 03:32:45;;;;;;;4.57;2.90;;;;;;;;;;5003671;28;20025;-86
2022/11/05 03:35:25;;;;;;;5.45;3.30;;;;;;;;;;5010979;28;20042;-88
2022/11/05 03:37:55;;;;;;;3.78;2.72;;;;;;;;;;4979913;28;20025;-88
2022/11/05 03:40:22;;;;;;;4.65;3.38;;;;;;;;;;4986988;28;20087;-86
2022/11/05 03:42:53;;;;;;;5.72;3.42;;;;;;;;;;4986418;28;20038;-88
2022/11/05 03:45:31;;;;;;;4.95;3.13;;;;;;;;;;4982782;28;20034;-87
2022/11/05 03:48:00;;;;;;;4.65;3.33;;;;;;;;;;4993203;28;20030;-87
2022/11/05 03:51:05;;;;;;;6.93;3.28;;;;;;;;;;5006123;28;20081;-87
2022/11/05 03:53:35;;;;;;;5.40;3.17;;;;;;;;;;4977009;28;20484;-86
2022/11/05 03:56:24;;;;;;;9.82;4.38;;;;;;;;;;5005269;28;20126;-87
2022/11/05 03:58:50;;;;;;;4.95;3.30;;;;;;;;;;4982302;28;20056;-86
2022/11/05 04:01:16;;;;;;;6.82;4.07;;;;;;;;;;4994278;28;20018;-88
2022/11/05 04:03:42;;;;;;;8.82;4.93;;;;;;;;;;5001617;28;21085;-86
2022/11/05 04:14:21;;;;;;;12.80;4.53;;;;;;;;;;5000330;28;20034;-87
2022/11/05 04:17:05;;;;;;;8.32;4.25;;;;;;;;;;4985375;28;20026;-86
2022/11/05 04:25:00;;;;;;;8.23;4.78;;;;;;;;;;4991500;28;20510;-88
2022/11/05 04:27:26;;;;;;;6.10;4.60;;;;;;;;;;4988567;28;20117;-88
2022/11/05 04:32:35;;;;;;;8.02;5.13;;;;;;;;;;4996893;28;20519;-86
2022/11/05 04:35:03;;;;;;;6.43;4.50;;;;;;;;;;4985404;28;20022;-88
2022/11/05 04:37:28;;;;;;;8.52;5.85;;;;;;;;;;4993132;28;20026;-88
2022/11/05 04:39:54;;;;;;;7.05;4.60;;;;;;;;;;4989583;28;20369;-87
2022/11/05 04:42:19;;;;;;;8.98;5.38;;;;;;;;;;4967024;28;20105;-87
2022/11/05 04:44:45;;;;;;;8.93;5.18;;;;;;;;;;5000520;28;20022;-87
2022/11/05 04:47:10;;;;;;;9.27;5.65;;;;;;;;;;4976675;28;20049;-87
2022/11/05 04:49:35;;;;;;;10.23;5.70;;;;;;;;;;4973438;28;20023;-87
2022/11/05 04:52:01;;;;;;;9.73;5.88;;;;;;;;;;4977519;28;20486;-87
2022/11/05 04:54:26;;;;;;;10.13;5.82;;;;;;;;;;4995980;28;20492;-87
2022/11/05 04:56:51;;;;;;;9.13;5.80;;;;;;;;;;4991457;28;20023;-87
2022/11/05 04:59:17;;;;;;;8.30;5.53;;;;;;;;;;4976079;28;20409;-88
2022/11/05 05:01:42;;;;;;;12.90;6.63;;;;;;;;;;4997709;28;20408;-88
2022/11/05 05:04:07;;;;;;;9.68;6.43;;;;;;;;;;4990357;28;20049;-87
2022/11/05 05:06:33;;;;;;;10.52;6.40;;;;;;;;;;4988725;28;20021;-87
2022/11/05 05:08:58;;;;;;;11.48;6.57;;;;;;;;;;4979018;28;20711;-87
2022/11/05 05:11:23;;;;;;;9.05;6.53;;;;;;;;;;4981285;28;20019;-86
2022/11/05 05:13:49;;;;;;;11.48;6.05;;;;;;;;;;5002695;28;20101;-88
2022/11/05 05:16:25;;;;;;;9.63;6.35;;;;;;;;;;4974114;28;20468;-86
2022/11/05 05:18:51;;;;;;;11.18;7.18;;;;;;;;;;5002319;28;20018;-88
2022/11/05 05:24:04;;;;;;;11.75;6.57;;;;;;;;;;4986553;28;20034;-86
2022/11/05 05:26:30;;;;;;;11.95;6.60;;;;;;;;;;4980996;28;20018;-87
2022/11/05 05:28:55;;;;;;;11.60;6.95;;;;;;;;;;4984714;28;20397;-86
2022/11/05 05:31:21;;;;;;;11.02;6.88;;;;;;;;;;4994494;28;20033;-86
2022/11/05 05:33:47;;;;;;;10.98;6.70;;;;;;;;;;4965681;28;20033;-87
2022/11/05 05:36:13;;;;;;;11.55;6.43;;;;;;;;;;4994512;28;20080;-86
2022/11/05 05:38:38;;;;;;;17.63;7.13;;;;;;;;;;4994881;28;20022;-87
2022/11/05 05:41:04;;;;;;;14.98;6.53;;;;;;;;;;4971249;28;20026;-86
2022/11/05 05:43:31;;;;;;;16.05;6.57;;;;;;;;;;4987558;28;20018;-87
2022/11/05 05:46:00;;;;;;;13.57;7.35;;;;;;;;;;4970106;28;20026;-87
2022/11/05 05:48:25;;;;;;;13.73;7.65;;;;;;;;;;4969074;28;20027;-87
2022/11/05 05:50:50;;;;;;;10.23;7.00;;;;;;;;;;4989032;28;20152;-86
2022/11/05 05:53:16;;;;;;;17.63;7.72;;;;;;;;;;4991346;28;20026;-86
2022/11/05 05:55:41;;;;;;;13.02;7.50;;;;;;;;;;4962592;28;20031;-86
2022/11/05 05:58:07;;;;;;;13.68;7.65;;;;;;;;;;4997628;28;20021;-88
2022/11/05 06:00:32;;;;;;;16.13;8.77;;;;;;;;;;5011211;28;20018;-88
2022/11/05 06:02:57;;;;;;;15.57;8.27;;;;;;;;;;4998983;28;20078;-88
2022/11/05 06:05:23;;;;;;;13.93;8.23;;;;;;;;;;4978407;28;20038;-88
2022/11/05 06:07:56;;;;;;;17.83;8.27;;;;;;;;;;4988443;28;20027;-87
2022/11/05 06:10:22;;;;;;;14.90;8.65;;;;;;;;;;4972027;28;20092;-88
2022/11/05 06:12:48;;;;;;;13.95;9.10;;;;;;;;;;4968132;28;20086;-87
2022/11/05 06:15:14;;;;;;;14.07;8.48;;;;;;;;;;4974547;28;20497;-87
2022/11/05 06:17:39;;;;;;;21.42;9.75;;;;;;;;;;4990476;28;20029;-87
2022/11/05 06:20:06;;;;;;;17.67;9.40;;;;;;;;;;4982929;28;20060;-85
2022/11/05 06:22:31;;;;;;;16.77;8.80;;;;;;;;;;4977036;28;20141;-85
2022/11/05 06:24:57;;;;;;;17.60;9.70;;;;;;;;;;4974904;28;20037;-85
2022/11/05 06:27:22;;;;;;;15.30;9.40;;;;;;;;;;4974936;28;20026;-85
2022/11/05 06:29:48;;;;;;;18.08;9.50;;;;;;;;;;4991814;28;20030;-85
2022/11/05 06:32:13;;;;;;;17.33;9.63;;;;;;;;;;4983288;28;20112;-85
2022/11/05 06:34:38;;;;;;;21.50;10.23;;;;;;;;;;4975709;28;20109;-85
2022/11/05 06:37:04;;;;;;;15.80;8.77;;;;;;;;;;4977610;28;20041;-83
2022/11/05 06:39:29;;;;;;;16.40;9.30;;;;;;;;;;4979886;28;20136;-84
2022/11/05 06:41:55;;;;;;;16.77;9.00;;;;;;;;;;4995385;28;20030;-84
2022/11/05 06:44:21;;;;;;;15.65;9.68;;;;;;;;;;4972054;28;20018;-85
2022/11/05 06:46:46;;;;;;;16.27;9.02;;;;;;;;;;4975470;28;20101;-84
2022/11/05 06:49:12;;;;;;;16.90;8.52;;;;;;;;;;4976559;28;20022;-84
2022/11/05 06:51:37;;;;;;;22.15;9.00;;;;;;;;;;4982219;28;20121;-84
2022/11/05 06:54:03;;;;;;;15.32;8.50;;;;;;;;;;4976484;28;20486;-85
2022/11/05 06:56:28;;;;;;;19.05;9.25;;;;;;;;;;4967615;28;20544;-85
2022/11/05 06:58:53;;;;;;;21.08;9.52;;;;;;;;;;4983458;28;20034;-84
2022/11/05 07:01:19;;;;;;;16.65;9.20;;;;;;;;;;4983991;28;20472;-84
2022/11/05 07:03:47;;;;;;;16.60;9.55;;;;;;;;;;4978835;28;20389;-84
2022/11/05 07:06:13;;;;;;;16.13;8.68;;;;;;;;;;4978680;28;20056;-84
2022/11/05 07:08:38;;;;;;;18.15;8.77;;;;;;;;;;5013142;28;20010;-86
2022/11/05 07:11:04;;;;;;;18.48;8.82;;;;;;;;;;5020969;28;20039;-87
2022/11/05 07:13:30;;;;;;;22.67;9.95;;;;;;;;;;4996957;28;20034;-86
2022/11/05 07:15:56;;;;;;;16.38;8.38;;;;;;;;;;4988765;28;20031;-86
2022/11/05 07:18:22;;;;;;;18.00;8.77;;;;;;;;;;4975845;28;20018;-85
2022/11/05 07:20:48;;;;;;;19.67;9.00;;;;;;;;;;4993662;28;20049;-86
2022/11/05 07:23:13;;;;;;;16.00;8.10;;;;;;;;;;4986835;28;20026;-86
2022/11/05 07:25:40;;;;;;;16.70;8.77;;;;;;;;;;4993353;28;20058;-86
2022/11/05 07:28:06;;;;;;;16.63;8.50;;;;;;;;;;4997610;28;20022;-86
2022/11/05 07:30:32;;;;;;;16.50;7.35;;;;;;;;;;4982895;28;20022;-88
2022/11/05 07:32:58;;;;;;;19.60;7.93;;;;;;;;;;4979507;28;20022;-88
2022/11/05 07:35:24;;;;;;;21.73;8.82;;;;;;;;;;4998061;28;20026;-87
2022/11/05 07:37:52;;;;;;;16.20;9.13;;;;;;;;;;4994629;28;20118;-88
2022/11/05 07:40:21;;;;;;;22.17;10.30;;;;;;;;;;4995333;28;20069;-86
2022/11/05 07:43:00;;;;;;;18.88;7.82;;;;;;;;;;4983801;28;20022;-87
2022/11/05 07:45:31;;;;;;;20.52;9.43;;;;;;;;;;4982916;28;20031;-87
2022/11/05 07:48:02;;;;;;;16.42;8.85;;;;;;;;;;4977989;28;20032;-87
2022/11/05 07:50:31;;;;;;;16.42;8.50;;;;;;;;;;4979342;28;20026;-86
2022/11/05 07:53:05;;;;;;;19.10;9.32;;;;;;;;;;4971665;28;20515;-87
2022/11/05 07:55:30;;;;;;;19.13;9.55;;;;;;;;;;4976707;28;20089;-87
2022/11/05 07:57:56;;;;;;;17.52;9.35;;;;;;;;;;4993980;28;20451;-88
2022/11/05 08:00:33;;;;;;;14.77;7.93;;;;;;;;;;4995054;28;20042;-87
2022/11/05 08:03:01;;;;;;;18.67;9.07;;;;;;;;;;4975629;28;20044;-86
2022/11/05 08:05:28;;;;;;;21.58;9.18;;;;;;;;;;4995427;28;20031;-86
2022/11/05 08:07:54;;;;;;;14.80;8.02;;;;;;;;;;4979738;28;20030;-87
2022/11/05 08:10:21;;;;;;;14.48;5.78;;;;;;;;;;4983315;28;20027;-88
2022/11/05 08:12:46;;;;;;;10.50;5.47;;;;;;;;;;4977135;28;20030;-88
2022/11/05 08:15:12;;;;;;;11.35;5.47;;;;;;;;;;4976302;28;20023;-86
2022/11/05 08:17:37;;;;;;;11.27;5.93;;;;;;;;;;4983688;28;20003;-87
2022/11/05 08:20:03;;;;;;;11.68;5.85;;;;;;;;;;4976847;28;20108;-88
2022/11/05 08:22:31;;;;;;;8.40;5.03;;;;;;;;;;4999755;28;20026;-88
2022/11/05 08:24:56;;;;;;;7.07;4.03;;;;;;;;;;4994470;28;20756;-89
2022/11/05 08:27:22;;;;;;;9.13;4.03;;;;;;;;;;5004447;28;20022;-88
2022/11/05 08:29:47;;;;;;;7.50;4.45;;;;;;;;;;4985023;28;20022;-87
2022/11/05 08:32:13;;;;;;;6.25;3.90;;;;;;;;;;4999910;28;20030;-88
2022/11/05 08:34:40;;;;;;;7.72;3.83;;;;;;;;;;4997101;28;20118;-86
2022/11/05 08:37:05;;;;;;;14.93;4.20;;;;;;;;;;4979227;28;20046;-85
2022/11/05 08:39:33;;;;;;;6.95;3.90;;;;;;;;;;4966979;28;20015;-88
2022/11/05 08:41:58;;;;;;;6.82;3.70;;;;;;;;;;4977291;28;20041;-86
2022/11/05 08:44:24;;;;;;;6.55;4.03;;;;;;;;;;4981060;28;20033;-89
2022/11/05 08:46:49;;;;;;;7.82;4.05;;;;;;;;;;4981882;28;20030;-87
2022/11/05 08:49:16;;;;;;;5.55;3.63;;;;;;;;;;4968790;28;20035;-88
2022/11/05 08:51:43;;;;;;;4.95;3.08;;;;;;;;;;4990465;28;20036;-86
2022/11/05 08:54:08;;;;;;;9.10;3.55;;;;;;;;;;4984391;28;20033;-87
2022/11/05 08:56:33;;;;;;;6.78;3.47;;;;;;;;;;4972689;28;20021;-87
2022/11/05 08:58:59;;;;;;;6.05;3.65;;;;;;;;;;4998473;28;20038;-88
2022/11/05 09:01:25;;;;;;;7.63;4.05;;;;;;;;;;4989324;28;20105;-89
2022/11/05 09:03:51;;;;;;;7.40;3.60;;;;;;;;;;4978781;28;20113;-87
2022/11/05 09:06:19;;;;;;;6.28;3.22;;;;;;;;;;4997406;28;20025;-86
2022/11/05 09:08:44;;;;;;;5.55;3.50;;;;;;;;;;4995568;28;20038;-88
2022/11/05 09:11:10;;;;;;;6.13;3.22;;;;;;;;;;4995736;28;20023;-88
2022/11/05 09:13:35;;;;;;;7.07;3.65;;;;;;;;;;4979631;28;20504;-87
2022/11/05 09:16:00;;;;;;;8.02;4.35;;;;;;;;;;4983874;28;20030;-87
2022/11/05 09:18:26;;;;;;;6.10;3.97;;;;;;;;;;4989358;28;20019;-86
2022/11/05 09:20:52;;;;;;;7.97;4.50;;;;;;;;;;4982546;28;20033;-86
2022/11/05 09:23:17;;;;;;;8.65;3.90;;;;;;;;;;4994335;28;20022;-87
2022/11/05 09:25:43;;;;;;;7.95;4.38;;;;;;;;;;4978054;28;20037;-87
2022/11/05 09:28:12;;;;;;;13.60;5.40;;;;;;;;;;4988167;28;20080;-86
2022/11/05 09:30:42;;;;;;;10.50;5.03;;;;;;;;;;4980967;28;20484;-87
2022/11/05 09:33:11;;;;;;;8.55;4.68;;;;;;;;;;4979521;28;20396;-89
2022/11/05 09:35:38;;;;;;;10.85;4.55;;;;;;;;;;4971125;28;20048;-88
2022/11/05 09:38:04;;;;;;;8.80;4.65;;;;;;;;;;5002924;28;20026;-89
2022/11/05 09:40:31;;;;;;;9.25;5.43;;;;;;;;;;4978882;28;20552;-87
2022/11/05 09:42:57;;;;;;;9.32;5.07;;;;;;;;;;4991597;28;20019;-87
2022/11/05 09:45:25;;;;;;;10.02;5.63;;;;;;;;;;4995923;28;20432;-89
2022/11/05 09:47:54;;;;;;;15.20;5.13;;;;;;;;;;4977963;28;20030;-87
2022/11/05 09:50:37;;;;;;;11.52;5.40;;;;;;;;;;4985970;28;20034;-88
2022/11/05 09:53:03;;;;;;;7.65;5.13;;;;;;;;;;4995985;28;20026;-86
2022/11/05 09:55:34;;;;;;;10.23;5.75;;;;;;;;;;4984385;28;20026;-88
2022/11/05 09:58:05;;;;;;;11.68;6.25;;;;;;;;;;4981049;28;20114;-87
2022/11/05 10:00:33;;;;;;;13.95;5.93;;;;;;;;;;5000426;28;20353;-88
2022/11/05 10:03:21;;;;;;;13.15;5.97;;;;;;;;;;4977805;28;20033;-88
2022/11/05 10:05:48;;;;;;;12.20;6.40;;;;;;;;;;4993609;28;20146;-87
2022/11/05 10:08:17;;;;;;;10.55;6.45;;;;;;;;;;4976368;28;20436;-89
2022/11/05 10:10:53;;;;;;;12.73;6.97;;;;;;;;;;4990957;28;20030;-87
2022/11/05 10:13:36;;;;;;;12.85;6.20;;;;;;;;;;4991973;28;20018;-87
2022/11/05 10:16:22;;;;;;;11.13;5.80;;;;;;;;;;4986651;28;20027;-87
2022/11/05 10:19:11;;;;;;;9.48;5.97;;;;;;;;;;4977551;28;20045;-86
2022/11/05 10:21:37;;;;;;;12.57;6.05;;;;;;;;;;4980408;28;20073;-87
2022/11/05 10:24:12;;;;;;;10.98;6.15;;;;;;;;;;4993486;28;20026;-86
2022/11/05 10:26:38;;;;;;;11.55;5.15;;;;;;;;;;4979844;28;20031;-87
2022/11/05 10:29:03;;;;;;;10.55;5.05;;;;;;;;;;4999889;28;20039;-87
2022/11/05 10:31:33;;;;;;;14.52;6.47;;;;;;;;;;5008316;28;20054;-85
2022/11/05 10:34:02;;;;;;;10.82;4.90;;;;;;;;;;4993764;28;20042;-87
2022/11/05 10:36:33;;;;;;;11.50;5.07;;;;;;;;;;4982366;28;20362;-86
2022/11/05 10:39:13;;;;;;;8.80;5.35;;;;;;;;;;4973153;28;20109;-86
2022/11/05 10:41:58;;;;;;;10.00;5.40;;;;;;;;;;5012110;28;20014;-87
2022/11/05 10:44:35;;;;;;;18.58;5.97;;;;;;;;;;5010159;28;20029;-89
2022/11/05 10:47:22;;;;;;;9.40;5.13;;;;;;;;;;5001739;28;20043;-86
2022/11/05 10:49:59;;;;;;;9.98;5.78;;;;;;;;;;4994669;28;20444;-87
2022/11/05 10:52:37;;;;;;;10.50;5.85;;;;;;;;;;4994376;28;20495;-86
2022/11/05 10:55:24;;;;;;;9.60;5.78;;;;;;;;;;4998721;28;20058;-86
2022/11/05 10:57:53;;;;;;;15.85;6.20;;;;;;;;;;4975220;28;20117;-90
2022/11/05 11:00:20;;;;;;;14.60;6.47;;;;;;;;;;4985993;28;20081;-87
2022/11/05 11:02:49;;;;;;;10.98;5.38;;;;;;;;;;4979806;28;20026;-89
2022/11/05 11:05:35;;;;;;;11.45;5.35;;;;;;;;;;4992195;28;20034;-88
2022/11/05 11:08:09;;;;;;;9.63;5.63;;;;;;;;;;4984294;28;20029;-88
2022/11/05 11:10:50;;;;;;;10.85;6.57;;;;;;;;;;5001252;28;20022;-89
2022/11/05 11:13:40;;;;;;;9.48;5.68;;;;;;;;;;4981014;28;20023;-89
2022/11/05 11:16:37;;;;;;;12.75;5.95;;;;;;;;;;4987583;28;20069;-89
2022/11/05 11:19:04;;;;;;;9.52;5.38;;;;;;;;;;4974300;28;20034;-88
2022/11/05 11:21:31;;;;;;;8.35;5.47;;;;;;;;;;4982776;28;20034;-88
2022/11/05 11:24:05;;;;;;;10.15;5.53;;;;;;;;;;4975413;28;20051;-89
2022/11/05 11:26:41;;;;;;;9.05;5.70;;;;;;;;;;4979547;28;20022;-87
2022/11/05 11:29:15;;;;;;;7.90;5.00;;;;;;;;;;4989793;28;20027;-88
2022/11/05 11:31:41;;;;;;;8.30;4.85;;;;;;;;;;5001067;28;20042;-88
2022/11/05 11:34:17;;;;;;;8.65;4.72;;;;;;;;;;4991121;28;20037;-89
2022/11/05 11:36:48;;;;;;;9.77;4.95;;;;;;;;;;4991339;28;20034;-89
2022/11/05 11:39:23;;;;;;;11.18;5.65;;;;;;;;;;4991029;28;20049;-88
2022/11/05 11:41:55;;;;;;;8.40;4.70;;;;;;;;;;4989054;28;20038;-89
2022/11/05 11:44:28;;;;;;;10.15;5.57;;;;;;;;;;4992198;28;20540;-87
2022/11/05 11:46:57;;;;;;;15.52;6.75;;;;;;;;;;4983071;28;20047;-87
2022/11/05 11:49:32;;;;;;;11.38;5.38;;;;;;;;;;4975899;28;20082;-87
2022/11/05 11:52:04;;;;;;;10.35;5.53;;;;;;;;;;5009989;28;20026;-88
2022/11/05 11:57:27;;;;;;;7.85;5.10;;;;;;;;;;4990047;28;20033;-87
2022/11/05 11:59:54;;;;;;;7.70;4.75;;;;;;;;;;4984076;28;20022;-87
2022/11/05 12:02:29;;;;;;;7.00;4.93;;;;;;;;;;4996353;28;20037;-86
2022/11/05 12:05:08;;;;;;;8.80;5.13;;;;;;;;;;4986598;28;20042;-87
2022/11/05 12:07:36;;;;;;;12.85;4.45;;;;;;;;;;4978266;28;20031;-88
2022/11/05 12:10:22;;;;;;;5.45;3.85;;;;;;;;;;4996186;28;20032;-90
2022/11/05 12:12:48;;;;;;;8.95;3.70;;;;;;;;;;4975382;28;20069;-86
2022/11/05 12:15:37;;;;;;;7.45;4.40;;;;;;;;;;4988337;28;20057;-88
2022/11/05 12:18:35;;;;;;;6.97;4.10;;;;;;;;;;4990293;28;20030;-87
2022/11/05 12:21:13;;;;;;;8.18;4.03;;;;;;;;;;4982101;28;20037;-86
2022/11/05 12:23:41;;;;;;;8.77;3.80;;;;;;;;;;4983366;28;20071;-86
2022/11/05 12:26:12;;;;;;;10.70;3.97;;;;;;;;;;4988507;28;20026;-87
2022/11/05 12:29:13;;;;;;;7.15;3.45;;;;;;;;;;4990297;28;20029;-88
2022/11/05 12:32:12;;;;;;;6.53;3.85;;;;;;;;;;4964663;28;20041;-85
2022/11/05 12:35:08;;;;;;;5.07;3.85;;;;;;;;;;4993959;28;20033;-87
2022/11/05 12:38:17;;;;;;;9.15;4.22;;;;;;;;;;4972783;28;20052;-86
2022/11/05 12:41:11;;;;;;;4.93;3.15;;;;;;;;;;4993940;28;20078;-85
2022/11/05 12:44:05;;;;;;;7.55;4.07;;;;;;;;;;4990444;28;20022;-85
2022/11/05 12:46:37;;;;;;;7.97;3.58;;;;;;;;;;4978023;28;20026;-87
2022/11/05 12:49:02;;;;;;;11.52;3.97;;;;;;;;;;4997169;28;20026;-86
2022/11/05 12:51:40;;;;;;;10.38;3.42;;;;;;;;;;4994513;28;20037;-87
2022/11/05 12:54:24;;;;;;;6.55;3.45;;;;;;;;;;4993848;28;20034;-87
2022/11/05 12:56:54;;;;;;;9.13;3.30;;;;;;;;;;4989101;28;20030;-87
2022/11/05 12:59:19;;;;;;;6.55;3.45;;;;;;;;;;4993535;28;20045;-87
2022/11/05 13:01:52;;;;;;;6.47;3.42;;;;;;;;;;4999573;28;20400;-87
2022/11/05 13:04:55;;;;;;;6.78;3.33;;;;;;;;;;5004365;28;20082;-88
2022/11/05 13:07:28;;;;;;;7.38;2.95;;;;;;;;;;4957259;28;20053;-87
2022/11/05 13:10:09;;;;;;;10.95;3.05;;;;;;;;;;4993574;28;20078;-85
2022/11/05 13:12:48;;;;;;;5.75;3.33;;;;;;;;;;5001933;28;20097;-87
2022/11/05 13:15:36;;;;;;;6.13;3.25;;;;;;;;;;4983513;28;20033;-88
2022/11/05 13:18:12;;;;;;;8.25;2.92;;;;;;;;;;4969431;28;20038;-87
2022/11/05 13:20:40;;;;;;;9.25;2.75;;;;;;;;;;4975419;28;20037;-86
2022/11/05 13:23:18;;;;;;;5.00;3.13;;;;;;;;;;4980104;28;20018;-87
2022/11/05 13:25:49;;;;;;;5.00;2.85;;;;;;;;;;4972241;28;20104;-87
2022/11/05 13:28:23;;;;;;;5.90;2.70;;;;;;;;;;4993472;28;20034;-91
2022/11/05 13:30:56;;;;;;;3.35;2.75;;;;;;;;;;4978979;28;20033;-87
2022/11/05 13:33:34;;;;;;;8.88;2.97;;;;;;;;;;4999436;28;20037;-89
2022/11/05 13:39:08;;;;;;;;;;;;;;;;;;4997213;28;20049;-86
2022/11/05 13:41:42;;;;;;;5.25;1.92;;;;;;;;;;4979460;28;19910;-92
2022/11/05 13:44:55;;;;;;;6.93;2.40;;;;;;;;;;4991750;28;20038;-90
2022/11/05 13:48:10;;;;;;;6.75;2.83;;;;;;;;;;4965084;28;20548;-93
2022/11/05 13:50:56;;;;;;;5.50;2.40;;;;;;;;;;4965441;28;20042;-88
2022/11/05 13:53:33;;;;;;;6.78;2.28;;;;;;;;;;5000179;28;20031;-88
2022/11/05 13:56:30;;;;;;;3.17;2.42;;;;;;;;;;4992462;28;20586;-87
2022/11/05 13:59:34;;;;;;;8.45;3.08;;;;;;;;;;4988914;28;20031;-88
2022/11/05 14:02:30;;;;;;;4.03;2.35;;;;;;;;;;4967842;28;20038;-84
2022/11/05 14:04:59;;;;;;;4.45;2.47;;;;;;;;;;4953538;28;20081;-87
2022/11/05 14:07:36;;;;;;;2.67;2.40;;;;;;;;;;4978125;28;20034;-87
2022/11/05 14:10:24;;;;;;;11.15;3.10;;;;;;;;;;4984123;28;20077;-87
2022/11/05 14:12:53;;;;;;;10.75;2.65;;;;;;;;;;4981691;28;20137;-86
2022/11/05 14:15:25;;;;;;;6.45;2.90;;;;;;;;;;4969422;28;20038;-88
2022/11/05 14:18:04;;;;;;;;;;;;;;;;;;4990532;28;20022;-86
2022/11/05 14:20:30;;;;;;;6.65;3.05;;;;;;;;;;4995527;28;19952;-89
2022/11/05 14:23:23;;;;;;;7.95;3.55;;;;;;;;;;4985731;28;20729;-86
2022/11/05 14:26:16;;;;;;;9.57;2.97;;;;;;;;;;4995343;28;20042;-87
2022/11/05 14:28:45;;;;;;;5.75;2.67;;;;;;;;;;4999626;28;20027;-88
2022/11/05 14:31:31;;;;;;;5.45;2.80;;;;;;;;;;4978100;28;20030;-86
2022/11/05 14:34:15;;;;;;;7.40;3.22;;;;;;;;;;4969847;28;20144;-85
2022/11/05 14:37:00;;;;;;;3.72;2.95;;;;;;;;;;4995860;28;20022;-87
2022/11/05 14:39:30;;;;;;;5.97;2.92;;;;;;;;;;4993979;28;20440;-87
2022/11/05 14:42:01;;;;;;;7.38;3.55;;;;;;;;;;4992939;28;20022;-86
2022/11/05 14:44:28;;;;;;;4.38;2.72;;;;;;;;;;4986160;28;20019;-89
2022/11/05 14:46:58;;;;;;;6.68;3.10;;;;;;;;;;4973285;28;20114;-89
2022/11/05 14:49:28;;;;;;;6.25;3.42;;;;;;;;;;4985176;28;20069;-89
2022/11/05 14:51:56;;;;;;;6.35;3.17;;;;;;;;;;4985733;28;20030;-87
2022/11/05 14:54:27;;;;;;;6.68;3.03;;;;;;;;;;4984344;28;20053;-86
2022/11/05 14:56:58;;;;;;;5.57;3.17;;;;;;;;;;4986997;28;20766;-86
2022/11/05 14:59:23;;;;;;;6.37;3.33;;;;;;;;;;4984420;28;20362;-86
2022/11/05 15:01:52;;;;;;;10.45;3.38;;;;;;;;;;4981751;28;21212;-85
2022/11/05 15:04:34;;;;;;;7.97;3.55;;;;;;;;;;4985964;28;20037;-86
2022/11/05 15:07:03;;;;;;;10.02;3.85;;;;;;;;;;4983975;28;20041;-87
2022/11/05 15:09:46;;;;;;;6.82;3.22;;;;;;;;;;4983209;28;20061;-85
2022/11/05 15:12:24;;;;;;;5.30;3.35;;;;;;;;;;4969489;28;20551;-86
2022/11/05 15:14:53;;;;;;;7.15;3.60;;;;;;;;;;4994109;28;20014;-86
2022/11/05 15:17:29;;;;;;;16.95;3.42;;;;;;;;;;4996040;28;20069;-84
2022/11/05 15:20:17;;;;;;;8.90;3.63;;;;;;;;;;4995459;28;20401;-87
2022/11/05 15:23:05;;;;;;;6.00;3.63;;;;;;;;;;5001285;28;20097;-84
2022/11/05 15:26:17;;;;;;;8.40;3.47;;;;;;;;;;4988494;28;20036;-87
2022/11/05 15:28:46;;;;;;;6.15;2.97;;;;;;;;;;4981799;28;20067;-84
2022/11/05 15:31:12;;;;;;;5.82;2.97;;;;;;;;;;5005229;28;20032;-87
2022/11/05 15:33:39;;;;;;;7.40;3.30;;;;;;;;;;5005817;28;20110;-87
2022/11/05 15:36:31;;;;;;;3.88;2.38;;;;;;;;;;4999826;28;20029;-83
2022/11/05 15:38:57;;;;;;;;;;;;;;;;;;4988686;28;20030;-85
2022/11/05 15:41:27;;;;;;;5.85;2.60;;;;;;;;;;4984677;28;19917;-84
2022/11/05 15:43:52;;;;;;;2.53;2.17;;;;;;;;;;4973121;28;20026;-85
2022/11/05 15:46:19;;;;;;;5.22;2.42;;;;;;;;;;4975504;28;20026;-84
2022/11/05 15:48:51;;;;;;;4.18;2.42;;;;;;;;;;4981550;28;20113;-84
2022/11/05 15:51:19;;;;;;;6.47;2.45;;;;;;;;;;4982512;28;20103;-86
2022/11/05 15:53:44;;;;;;;6.38;3.00;;;;;;;;;;4967432;28;20077;-86
2022/11/05 15:56:17;;;;;;;9.80;3.25;;;;;;;;;;4985600;28;20506;-86
2022/11/05 15:58:48;;;;;;;6.18;2.60;;;;;;;;;;4988474;28;20043;-86